Time;durP1;ratioP1;P1;durP2;ratioP2;P2;SDS_P1;SDS_P2;PMS_P1;PMS_P2;Temp;Humidity;BMP_temperature;BMP_pressure;BME280_temperature;BME280_humidity;BME280_pressure;Samples;Min_cycle;Max_cycle;Signal;HPM_P1;HPM_P2
2021/03/23 00:01:04;;;;;;;39.93;22.27;;;4.70;99.90;;;;;;5020484;28;20274;-69
2021/03/23 00:03:32;;;;;;;38.77;21.70;;;4.70;99.90;;;;;;5016196;28;20700;-70
2021/03/23 00:05:59;;;;;;;40.03;22.87;;;4.60;99.90;;;;;;5017519;28;20211;-69
2021/03/23 00:08:29;;;;;;;33.70;21.20;;;4.60;99.90;;;;;;5017037;28;20204;-69
2021/03/23 00:10:59;;;;;;;41.53;22.90;;;4.50;99.90;;;;;;5014499;28;20205;-70
2021/03/23 00:13:25;;;;;;;37.13;21.57;;;4.50;99.90;;;;;;5015396;28;20217;-69
2021/03/23 00:15:52;;;;;;;36.73;23.03;;;4.40;99.90;;;;;;5018967;28;20207;-70
2021/03/23 00:18:19;;;;;;;41.73;22.13;;;4.40;99.90;;;;;;5019197;28;20205;-70
2021/03/23 00:20:47;;;;;;;38.43;21.50;;;4.40;99.90;;;;;;5018792;28;20227;-69
2021/03/23 00:23:13;;;;;;;39.27;22.83;;;4.50;99.90;;;;;;5018071;28;20204;-69
2021/03/23 00:25:40;;;;;;;36.37;23.30;;;4.40;99.90;;;;;;5016407;28;20261;-69
2021/03/23 00:28:08;;;;;;;37.83;22.63;;;4.40;99.90;;;;;;5016296;28;20204;-69
2021/03/23 00:30:34;;;;;;;39.77;22.43;;;4.30;99.90;;;;;;5018618;28;20215;-69
2021/03/23 00:33:02;;;;;;;37.67;21.73;;;4.20;99.90;;;;;;5017177;28;20204;-70
2021/03/23 00:35:28;;;;;;;43.43;23.33;;;4.10;99.90;;;;;;5019669;28;20270;-69
2021/03/23 00:37:56;;;;;;;42.10;23.70;;;4.20;99.90;;;;;;5019818;28;20271;-70
2021/03/23 00:40:26;;;;;;;37.07;23.53;;;4.30;99.90;;;;;;5016661;28;20213;-70
2021/03/23 00:42:54;;;;;;;40.20;23.80;;;4.30;99.90;;;;;;5019230;28;20204;-69
2021/03/23 00:45:22;;;;;;;38.53;23.17;;;4.30;99.90;;;;;;5020474;28;20200;-70
2021/03/23 00:47:49;;;;;;;45.70;25.17;;;4.40;99.90;;;;;;5018891;28;20211;-69
2021/03/23 00:50:15;;;;;;;39.57;24.73;;;4.50;99.90;;;;;;5017990;28;20205;-70
2021/03/23 00:52:42;;;;;;;42.47;24.87;;;4.50;99.90;;;;;;5018514;28;20201;-69
2021/03/23 00:55:10;;;;;;;40.90;25.47;;;4.60;99.90;;;;;;5018842;28;20200;-70
2021/03/23 00:57:36;;;;;;;42.10;24.50;;;4.60;99.90;;;;;;5016907;28;20716;-69
2021/03/23 01:00:05;;;;;;;41.90;25.47;;;4.60;99.90;;;;;;5019095;28;20235;-69
2021/03/23 01:02:33;;;;;;;37.80;24.03;;;4.60;99.90;;;;;;5019449;28;20212;-69
2021/03/23 01:04:59;;;;;;;38.97;23.53;;;4.60;99.90;;;;;;5017348;28;20200;-69
2021/03/23 01:07:26;;;;;;;36.80;24.70;;;4.60;99.90;;;;;;5017428;28;20212;-69
2021/03/23 01:09:52;;;;;;;41.30;24.40;;;4.50;99.90;;;;;;5018839;28;20208;-69
2021/03/23 01:12:19;;;;;;;39.50;23.90;;;4.50;99.90;;;;;;5019750;28;20208;-69
2021/03/23 01:14:45;;;;;;;40.23;23.73;;;4.50;99.90;;;;;;5017530;28;20204;-69
2021/03/23 01:17:12;;;;;;;42.10;24.40;;;4.40;99.90;;;;;;5021482;28;20233;-69
2021/03/23 01:19:39;;;;;;;36.07;25.00;;;4.40;99.90;;;;;;5016631;28;20234;-69
2021/03/23 01:22:06;;;;;;;38.93;24.70;;;4.30;99.90;;;;;;5016852;28;20196;-69
2021/03/23 01:24:34;;;;;;;44.27;26.13;;;4.20;99.90;;;;;;5019258;28;20216;-69
2021/03/23 01:27:01;;;;;;;41.90;25.23;;;4.20;99.90;;;;;;5013912;28;20197;-70
2021/03/23 01:29:28;;;;;;;44.40;24.53;;;4.10;99.90;;;;;;5017537;28;20818;-69
2021/03/23 01:31:54;;;;;;;42.63;26.50;;;4.10;99.90;;;;;;5018026;28;20569;-71
2021/03/23 01:34:21;;;;;;;37.40;24.67;;;4.10;99.90;;;;;;5018124;28;20215;-70
2021/03/23 01:36:48;;;;;;;50.87;26.27;;;4.10;99.90;;;;;;5019509;28;21053;-70
2021/03/23 01:39:14;;;;;;;39.27;24.67;;;4.00;99.90;;;;;;5017949;28;20200;-71
2021/03/23 01:41:41;;;;;;;45.67;26.90;;;3.90;99.90;;;;;;5014970;28;20204;-70
2021/03/23 01:44:07;;;;;;;43.43;26.50;;;3.90;99.90;;;;;;5023207;28;21222;-71
2021/03/23 01:46:41;;;;;;;48.50;27.60;;;3.90;99.90;;;;;;5017365;28;20207;-70
2021/03/23 01:49:14;;;;;;;44.77;26.60;;;3.90;99.90;;;;;;5018332;28;20199;-70
2021/03/23 01:51:43;;;;;;;49.73;26.97;;;3.80;99.90;;;;;;5018200;28;20204;-68
2021/03/23 01:54:14;;;;;;;43.57;27.00;;;3.80;99.90;;;;;;5016910;28;20216;-71
2021/03/23 01:56:42;;;;;;;45.73;27.57;;;3.80;99.90;;;;;;5017410;28;20270;-70
2021/03/23 01:59:09;;;;;;;42.33;27.10;;;3.70;99.90;;;;;;5017444;28;20212;-71
2021/03/23 02:01:37;;;;;;;52.87;29.07;;;3.70;99.90;;;;;;5017892;28;20704;-71
2021/03/23 02:04:05;;;;;;;44.83;27.10;;;3.70;99.90;;;;;;5018258;28;20295;-70
2021/03/23 02:06:34;;;;;;;40.67;27.27;;;3.70;99.90;;;;;;5017217;28;20212;-70
2021/03/23 02:09:03;;;;;;;40.67;27.57;;;3.70;99.90;;;;;;5019219;28;21442;-69
2021/03/23 02:11:31;;;;;;;48.60;28.53;;;3.70;99.90;;;;;;5016727;28;21975;-70
2021/03/23 02:13:58;;;;;;;46.03;28.87;;;3.50;99.90;;;;;;5016878;28;20689;-70
2021/03/23 02:16:25;;;;;;;50.40;29.03;;;3.50;99.90;;;;;;5017723;28;20224;-70
2021/03/23 02:18:52;;;;;;;47.07;28.50;;;3.50;99.90;;;;;;5016547;28;20212;-69
2021/03/23 02:21:21;;;;;;;54.03;30.07;;;3.50;99.90;;;;;;5018755;28;20200;-70
2021/03/23 02:23:49;;;;;;;55.07;31.43;;;3.50;99.90;;;;;;5017606;28;20235;-70
2021/03/23 02:26:19;;;;;;;55.37;30.50;;;3.50;99.90;;;;;;5018286;28;20216;-70
2021/03/23 02:28:52;;;;;;;49.00;30.40;;;3.50;99.90;;;;;;5017619;28;20204;-71
2021/03/23 02:31:25;;;;;;;51.50;30.43;;;3.50;99.90;;;;;;5015372;28;20283;-70
2021/03/23 02:33:52;;;;;;;58.43;32.10;;;3.50;99.90;;;;;;5017814;28;20197;-70
2021/03/23 02:36:19;;;;;;;57.73;32.97;;;3.50;99.90;;;;;;5018512;28;20224;-71
2021/03/23 02:38:46;;;;;;;59.17;33.33;;;3.70;99.90;;;;;;5019634;28;22312;-71
2021/03/23 02:41:13;;;;;;;56.13;32.03;;;3.80;99.90;;;;;;5015479;28;20215;-68
2021/03/23 02:43:39;;;;;;;58.77;34.20;;;3.90;99.90;;;;;;5022273;28;20200;-70
2021/03/23 02:46:06;;;;;;;62.30;34.63;;;3.90;99.90;;;;;;5017394;28;20240;-71
2021/03/23 02:48:32;;;;;;;62.70;33.13;;;3.90;99.90;;;;;;5017240;28;20201;-71
2021/03/23 02:50:59;;;;;;;65.10;34.43;;;3.90;99.90;;;;;;5018945;28;20201;-69
2021/03/23 02:53:27;;;;;;;61.63;34.57;;;3.90;99.90;;;;;;5020811;28;20711;-70
2021/03/23 02:55:54;;;;;;;66.13;34.67;;;3.90;99.90;;;;;;5019067;28;20204;-69
2021/03/23 02:58:20;;;;;;;62.93;34.70;;;3.80;99.90;;;;;;5020964;28;20286;-70
2021/03/23 03:00:47;;;;;;;60.57;34.70;;;3.80;99.90;;;;;;5020097;28;20701;-70
2021/03/23 03:03:14;;;;;;;62.87;35.53;;;3.70;99.90;;;;;;5020429;28;20573;-71
2021/03/23 03:05:41;;;;;;;65.83;35.77;;;3.70;99.90;;;;;;5023524;28;20352;-71
2021/03/23 03:08:08;;;;;;;64.50;35.63;;;3.70;99.90;;;;;;5019757;28;20242;-70
2021/03/23 03:10:35;;;;;;;66.90;35.47;;;3.70;99.90;;;;;;5018316;28;20463;-69
2021/03/23 03:13:03;;;;;;;62.43;33.43;;;3.70;99.90;;;;;;5019600;28;20469;-70
2021/03/23 03:15:30;;;;;;;70.33;36.30;;;3.70;99.90;;;;;;5022123;28;20205;-70
2021/03/23 03:17:57;;;;;;;62.40;35.50;;;3.70;99.90;;;;;;5021369;28;20243;-69
2021/03/23 03:20:24;;;;;;;65.40;35.27;;;3.60;99.90;;;;;;5019901;28;20267;-71
2021/03/23 03:22:51;;;;;;;64.97;35.37;;;3.50;99.90;;;;;;5020380;28;20611;-69
2021/03/23 03:25:18;;;;;;;61.17;37.17;;;3.50;99.90;;;;;;5021882;28;20335;-71
2021/03/23 03:27:46;;;;;;;72.53;36.47;;;3.50;99.90;;;;;;5020078;28;20233;-71
2021/03/23 03:30:21;;;;;;;61.07;35.00;;;3.40;99.90;;;;;;5021531;28;20204;-69
2021/03/23 03:32:48;;;;;;;69.63;35.07;;;3.40;99.90;;;;;;5019842;28;20192;-70
2021/03/23 03:35:16;;;;;;;62.53;36.17;;;3.50;99.90;;;;;;5020597;28;20197;-70
2021/03/23 03:37:43;;;;;;;65.30;35.53;;;3.50;99.90;;;;;;5023282;28;20234;-70
2021/03/23 03:40:13;;;;;;;75.60;36.73;;;3.60;99.90;;;;;;5018401;28;20208;-70
2021/03/23 03:42:39;;;;;;;69.27;37.37;;;3.70;99.90;;;;;;5027483;28;20237;-70
2021/03/23 03:45:09;;;;;;;72.07;37.80;;;3.90;99.90;;;;;;5021488;28;20241;-69
2021/03/23 03:47:36;;;;;;;77.73;39.20;;;3.90;99.90;;;;;;5020888;28;20213;-70
2021/03/23 03:50:05;;;;;;;71.07;38.17;;;3.90;99.90;;;;;;5020350;28;20677;-70
2021/03/23 03:52:31;;;;;;;72.30;37.47;;;3.90;99.90;;;;;;5019910;28;20209;-70
2021/03/23 03:54:58;;;;;;;74.93;39.27;;;3.90;99.90;;;;;;5016278;28;20207;-71
2021/03/23 03:57:24;;;;;;;68.93;36.83;;;4.00;99.90;;;;;;5023059;28;20227;-70
2021/03/23 03:59:51;;;;;;;84.20;40.57;;;4.00;99.90;;;;;;5020460;28;20232;-70
2021/03/23 04:02:18;;;;;;;76.73;39.63;;;4.10;99.90;;;;;;5018691;28;20218;-70
2021/03/23 04:04:46;;;;;;;69.43;38.00;;;4.10;99.90;;;;;;5020686;28;20275;-70
2021/03/23 04:07:14;;;;;;;75.50;40.03;;;4.10;99.90;;;;;;5020111;28;20205;-71
2021/03/23 04:09:40;;;;;;;74.67;40.73;;;4.20;99.90;;;;;;5020628;28;20204;-71
2021/03/23 04:12:09;;;;;;;75.73;39.73;;;4.30;99.90;;;;;;5020003;28;20278;-71
2021/03/23 04:14:36;;;;;;;78.27;40.17;;;4.40;99.90;;;;;;5019729;28;20243;-70
2021/03/23 04:17:03;;;;;;;69.23;39.03;;;4.50;99.90;;;;;;5022728;28;20248;-70
2021/03/23 04:19:30;;;;;;;78.07;40.07;;;4.60;99.90;;;;;;5019622;28;20204;-69
2021/03/23 04:21:57;;;;;;;74.87;39.90;;;4.60;99.90;;;;;;5017714;28;22326;-70
2021/03/23 04:24:24;;;;;;;82.17;41.23;;;4.60;99.90;;;;;;5020391;28;20673;-72
2021/03/23 04:26:51;;;;;;;73.03;40.20;;;4.70;99.90;;;;;;5018552;28;20204;-70
2021/03/23 04:29:17;;;;;;;77.90;40.93;;;4.70;99.90;;;;;;5019117;28;20216;-68
2021/03/23 04:31:44;;;;;;;74.93;39.13;;;4.80;99.90;;;;;;5020968;28;20212;-70
2021/03/23 04:34:13;;;;;;;72.17;39.70;;;4.80;99.90;;;;;;5017071;28;20227;-71
2021/03/23 04:36:41;;;;;;;78.40;41.03;;;4.90;99.90;;;;;;5026619;28;20223;-71
2021/03/23 04:39:11;;;;;;;75.53;38.27;;;4.90;99.90;;;;;;5022207;28;20206;-71
2021/03/23 04:41:39;;;;;;;73.70;38.70;;;5.00;99.90;;;;;;5020521;28;20204;-70
2021/03/23 04:44:06;;;;;;;80.47;41.10;;;5.00;99.90;;;;;;5020407;28;20212;-69
2021/03/23 04:46:33;;;;;;;75.47;38.47;;;5.00;99.90;;;;;;5019485;28;20278;-69
2021/03/23 04:48:59;;;;;;;77.00;40.63;;;5.00;99.90;;;;;;5018551;28;20233;-69
2021/03/23 04:51:28;;;;;;;73.60;39.60;;;5.10;99.90;;;;;;5014874;28;20228;-70
2021/03/23 04:54:01;;;;;;;69.30;39.17;;;5.10;99.90;;;;;;5017207;28;20205;-70
2021/03/23 04:56:31;;;;;;;72.43;38.37;;;5.10;99.90;;;;;;5016289;28;20215;-70
2021/03/23 04:58:58;;;;;;;71.67;38.83;;;5.10;99.90;;;;;;5020133;28;20204;-72
2021/03/23 05:01:25;;;;;;;76.13;38.03;;;5.10;99.90;;;;;;5015060;28;20232;-70
2021/03/23 05:03:55;;;;;;;68.83;38.20;;;5.10;99.90;;;;;;5023296;28;20207;-71
2021/03/23 05:06:23;;;;;;;69.83;37.77;;;5.10;99.90;;;;;;5018502;28;20197;-70
2021/03/23 05:08:49;;;;;;;70.57;39.40;;;5.10;99.90;;;;;;5018146;28;20228;-73
2021/03/23 05:11:19;;;;;;;76.37;39.40;;;5.20;99.90;;;;;;5018356;28;20653;-70
2021/03/23 05:13:47;;;;;;;72.73;41.57;;;5.20;99.90;;;;;;5018346;28;20212;-71
2021/03/23 05:16:14;;;;;;;78.20;39.80;;;5.20;99.90;;;;;;5018705;28;20644;-70
2021/03/23 05:18:41;;;;;;;73.07;38.67;;;5.20;99.90;;;;;;5018478;28;20196;-71
2021/03/23 05:21:07;;;;;;;76.20;37.63;;;5.20;99.90;;;;;;5017533;28;20205;-71
2021/03/23 05:23:34;;;;;;;79.50;36.33;;;5.30;99.90;;;;;;5019114;28;20270;-71
2021/03/23 05:26:01;;;;;;;79.67;37.67;;;5.40;99.90;;;;;;5019431;28;20204;-71
2021/03/23 05:28:29;;;;;;;84.97;38.00;;;5.40;99.90;;;;;;5016698;28;20204;-71
2021/03/23 05:30:57;;;;;;;86.17;37.07;;;5.40;99.90;;;;;;5018545;28;20266;-70
2021/03/23 05:33:24;;;;;;;86.00;37.97;;;5.50;99.90;;;;;;5018241;28;20223;-70
2021/03/23 05:35:51;;;;;;;80.57;36.87;;;5.50;99.90;;;;;;5016954;28;20213;-70
2021/03/23 05:38:18;;;;;;;90.73;38.33;;;5.50;99.90;;;;;;5019712;28;20238;-70
2021/03/23 05:40:47;;;;;;;92.27;38.23;;;5.50;99.90;;;;;;5023389;28;20203;-71
2021/03/23 05:43:53;;;;;;;89.07;38.60;;;5.50;99.90;;;;;;5020407;28;20291;-71
2021/03/23 05:46:32;;;;;;;95.63;38.23;;;5.60;99.90;;;;;;4981448;28;20200;-70
2021/03/23 05:49:30;;;;;;;92.07;38.47;;;5.60;99.90;;;;;;5015155;28;20200;-70
2021/03/23 05:52:03;;;;;;;81.03;37.33;;;5.60;99.90;;;;;;5015753;28;20211;-70
2021/03/23 05:54:35;;;;;;;97.97;39.17;;;5.60;99.90;;;;;;5017467;28;20243;-70
2021/03/23 05:57:06;;;;;;;98.23;39.83;;;5.60;99.90;;;;;;5017824;28;20260;-71
2021/03/23 05:59:41;;;;;;;91.67;38.03;;;5.70;99.90;;;;;;5018475;28;20312;-71
2021/03/23 06:02:24;;;;;;;102.90;38.30;;;5.70;99.90;;;;;;5017503;28;20209;-71
2021/03/23 06:05:01;;;;;;;87.50;38.30;;;5.70;99.90;;;;;;5020647;28;20201;-71
2021/03/23 06:07:36;;;;;;;94.00;38.33;;;5.70;99.90;;;;;;5017946;28;20214;-69
2021/03/23 06:10:12;;;;;;;106.03;40.67;;;5.80;99.90;;;;;;5015683;28;20212;-69
2021/03/23 06:12:46;;;;;;;108.87;40.93;;;5.80;99.90;;;;;;5015568;28;20532;-71
2021/03/23 06:15:21;;;;;;;96.43;40.57;;;5.90;99.90;;;;;;5014604;28;20269;-70
2021/03/23 06:17:56;;;;;;;97.87;39.90;;;5.90;99.90;;;;;;5018890;28;20746;-70
2021/03/23 06:20:54;;;;;;;95.10;39.83;;;5.90;99.90;;;;;;5017549;28;20200;-69
2021/03/23 06:23:53;;;;;;;99.70;41.00;;;6.00;99.90;;;;;;5011897;28;20208;-69
2021/03/23 06:26:31;;;;;;;93.07;38.83;;;6.00;99.90;;;;;;5015778;28;20213;-68
2021/03/23 06:29:25;;;;;;;97.50;37.53;;;6.10;99.90;;;;;;5022311;28;20723;-69
2021/03/23 06:32:09;;;;;;;89.33;37.57;;;6.10;99.90;;;;;;5020147;28;20262;-70
2021/03/23 06:34:37;;;;;;;93.17;36.13;;;6.20;99.90;;;;;;5020065;28;20247;-71
2021/03/23 06:37:19;;;;;;;101.07;38.20;;;6.20;99.90;;;;;;5022468;28;20220;-71
2021/03/23 06:39:46;;;;;;;94.53;39.13;;;6.30;99.90;;;;;;5021514;28;20498;-70
2021/03/23 06:42:13;;;;;;;89.70;37.10;;;6.30;99.90;;;;;;5024792;28;20207;-70
2021/03/23 06:44:41;;;;;;;93.57;37.07;;;6.40;99.90;;;;;;5021993;28;20247;-70
2021/03/23 06:47:35;;;;;;;84.60;36.53;;;6.40;99.90;;;;;;5022219;28;20690;-70
2021/03/23 06:50:15;;;;;;;84.07;36.60;;;6.40;99.90;;;;;;5020824;28;20213;-71
2021/03/23 06:52:42;;;;;;;86.67;36.27;;;6.50;99.90;;;;;;5020900;28;20601;-71
2021/03/23 06:55:22;;;;;;;90.50;37.17;;;6.60;99.90;;;;;;5023139;28;20467;-70
2021/03/23 06:57:49;;;;;;;73.87;33.07;;;6.60;99.90;;;;;;5021118;28;20747;-71
2021/03/23 07:00:27;;;;;;;75.57;35.17;;;6.60;99.90;;;;;;5020267;28;20220;-71
2021/03/23 07:02:55;;;;;;;75.40;33.97;;;6.70;99.90;;;;;;5023526;28;20212;-71
2021/03/23 07:05:35;;;;;;;83.33;35.00;;;6.70;99.90;;;;;;5019500;28;20217;-72
2021/03/23 07:08:04;;;;;;;87.73;36.77;;;6.80;99.90;;;;;;5020454;28;20231;-72
2021/03/23 07:10:33;;;;;;;81.70;37.50;;;6.80;99.90;;;;;;5020864;28;20558;-71
2021/03/23 07:13:00;;;;;;;82.33;35.47;;;6.80;99.90;;;;;;5022239;28;20201;-71
2021/03/23 07:15:28;;;;;;;82.27;36.43;;;6.80;99.90;;;;;;5019360;28;20204;-70
2021/03/23 07:17:57;;;;;;;71.33;34.73;;;6.80;99.90;;;;;;5018731;28;20224;-71
2021/03/23 07:20:41;;;;;;;83.43;35.93;;;6.80;99.90;;;;;;5021479;28;20204;-69
2021/03/23 07:23:33;;;;;;;79.13;34.90;;;6.90;99.90;;;;;;5017536;28;20223;-72
2021/03/23 07:26:27;;;;;;;76.33;33.93;;;6.80;99.90;;;;;;5023092;28;20710;-71
2021/03/23 07:28:54;;;;;;;72.43;33.73;;;6.80;99.90;;;;;;5018891;28;20207;-70
2021/03/23 07:31:28;;;;;;;82.03;35.37;;;6.90;99.90;;;;;;5017785;28;20231;-68
2021/03/23 07:34:04;;;;;;;79.97;34.37;;;6.90;99.90;;;;;;5021059;28;22219;-70
2021/03/23 07:36:38;;;;;;;74.73;34.07;;;6.90;99.90;;;;;;5019421;28;20207;-70
2021/03/23 07:39:12;;;;;;;75.70;33.90;;;6.90;99.90;;;;;;5022481;28;20204;-70
2021/03/23 07:41:44;;;;;;;66.90;31.83;;;6.90;99.90;;;;;;5019898;28;20208;-69
2021/03/23 07:44:19;;;;;;;71.30;32.50;;;6.90;99.90;;;;;;5017733;28;20368;-69
2021/03/23 07:46:51;;;;;;;72.10;32.03;;;6.90;99.90;;;;;;5019607;28;20664;-68
2021/03/23 07:49:35;;;;;;;62.53;30.30;;;6.90;99.90;;;;;;5020327;28;20905;-74
2021/03/23 07:52:15;;;;;;;66.07;29.80;;;6.90;99.90;;;;;;5020566;28;20234;-69
2021/03/23 07:54:42;;;;;;;67.37;30.77;;;6.90;99.90;;;;;;5019339;28;20189;-70
2021/03/23 07:57:36;;;;;;;70.73;32.13;;;6.90;99.90;;;;;;5019840;28;20700;-70
2021/03/23 08:00:20;;;;;;;64.77;31.40;;;7.00;99.90;;;;;;5018876;28;20227;-68
2021/03/23 08:02:56;;;;;;;63.07;31.47;;;7.10;99.90;;;;;;5002524;28;20934;-68
2021/03/23 08:05:31;;;;;;;56.90;28.93;;;7.10;99.90;;;;;;5017193;28;20187;-69
2021/03/23 08:08:09;;;;;;;50.93;27.83;;;7.20;99.90;;;;;;5020424;28;21035;-68
2021/03/23 08:10:41;;;;;;;56.87;30.03;;;7.30;99.90;;;;;;5019829;28;20247;-68
2021/03/23 08:13:33;;;;;;;58.10;28.80;;;7.40;99.90;;;;;;5017432;28;20242;-69
2021/03/23 08:16:11;;;;;;;52.23;27.97;;;7.50;99.90;;;;;;5020214;28;20251;-69
2021/03/23 08:19:12;;;;;;;49.37;28.07;;;7.60;99.90;;;;;;5017386;28;20278;-69
2021/03/23 08:22:13;;;;;;;45.10;26.10;;;7.70;99.90;;;;;;5017925;28;20208;-68
2021/03/23 08:24:54;;;;;;;53.20;27.93;;;7.90;99.90;;;;;;5021374;28;20199;-69
2021/03/23 08:27:55;;;;;;;47.23;28.27;;;8.00;99.90;;;;;;5022477;28;20255;-69
2021/03/23 08:30:34;;;;;;;47.60;26.90;;;8.10;99.90;;;;;;5020534;28;20572;-69
2021/03/23 08:33:05;;;;;;;48.73;28.33;;;8.20;99.90;;;;;;5020788;28;20211;-68
2021/03/23 08:35:55;;;;;;;49.73;29.17;;;8.40;99.90;;;;;;5019106;28;20208;-66
2021/03/23 08:38:34;;;;;;;47.43;27.20;;;9.00;99.90;;;;;;5021169;28;20215;-67
2021/03/23 08:41:10;;;;;;;44.27;26.47;;;9.30;99.90;;;;;;5017995;28;20197;-68
2021/03/23 08:43:38;;;;;;;45.27;28.13;;;9.40;99.90;;;;;;5018223;28;20208;-69
2021/03/23 08:46:07;;;;;;;46.17;28.63;;;9.50;99.90;;;;;;5021504;28;20205;-70
2021/03/23 08:48:40;;;;;;;47.60;29.30;;;9.30;99.90;;;;;;5006317;28;20894;-68
2021/03/23 08:51:09;;;;;;;49.67;29.57;;;9.10;99.90;;;;;;5017195;28;20216;-68
2021/03/23 08:53:55;;;;;;;58.10;33.20;;;9.10;99.90;;;;;;5019926;28;20200;-69
2021/03/23 08:56:58;;;;;;;43.67;27.80;;;9.00;99.90;;;;;;5019793;28;20544;-68
2021/03/23 08:59:46;;;;;;;44.17;26.20;;;9.00;99.90;;;;;;5017175;28;20215;-69
2021/03/23 09:02:47;;;;;;;45.03;26.27;;;9.20;99.90;;;;;;5020558;28;20658;-67
2021/03/23 09:05:35;;;;;;;44.23;26.63;;;9.60;99.90;;;;;;5022147;28;20731;-69
2021/03/23 09:08:39;;;;;;;46.33;27.43;;;9.70;99.90;;;;;;5022738;28;20207;-67
2021/03/23 09:11:08;;;;;;;52.10;30.20;;;10.00;99.90;;;;;;4958489;28;20214;-67
2021/03/23 09:14:07;;;;;;;44.73;29.40;;;10.80;99.90;;;;;;5012914;28;20208;-68
2021/03/23 09:16:48;;;;;;;40.47;26.73;;;11.70;99.90;;;;;;5008865;28;20208;-69
2021/03/23 09:19:32;;;;;;;39.60;24.70;;;12.70;99.90;;;;;;5022494;28;20668;-67
2021/03/23 09:22:14;;;;;;;29.87;21.47;;;13.20;99.90;;;;;;5022196;28;20247;-69
2021/03/23 09:24:42;;;;;;;28.87;19.67;;;13.90;99.90;;;;;;5021967;28;20195;-69
2021/03/23 09:27:13;;;;;;;29.13;19.37;;;14.40;99.90;;;;;;5021878;28;20219;-70
2021/03/23 09:29:48;;;;;;;25.73;18.97;;;14.60;99.90;;;;;;5021639;28;20208;-69
2021/03/23 09:32:19;;;;;;;25.87;17.83;;;14.80;99.90;;;;;;5021795;28;20208;-71
2021/03/23 09:35:24;;;;;;;24.70;17.77;;;15.20;99.90;;;;;;5015291;28;20669;-68
2021/03/23 09:37:57;;;;;;;20.77;16.67;;;15.30;99.90;;;;;;5018842;28;20281;-69
2021/03/23 09:40:52;;;;;;;22.60;17.30;;;15.60;99.90;;;;;;5019449;28;20267;-68
2021/03/23 09:43:40;;;;;;;20.73;16.30;;;15.80;99.90;;;;;;5019499;28;20264;-69
2021/03/23 09:46:40;;;;;;;21.07;15.53;;;16.10;99.90;;;;;;5013635;28;20215;-68
2021/03/23 09:49:24;;;;;;;23.13;16.60;;;15.90;99.90;;;;;;5021491;28;20208;-68
2021/03/23 09:51:55;;;;;;;23.20;16.13;;;15.70;99.90;;;;;;5020861;28;20211;-68
2021/03/23 09:54:31;;;;;;;22.07;16.23;;;15.10;99.90;;;;;;5019951;28;20291;-68
2021/03/23 09:56:59;;;;;;;22.60;17.13;;;14.90;99.90;;;;;;5020661;28;20205;-67
2021/03/23 09:59:29;;;;;;;22.33;16.60;;;14.80;99.90;;;;;;5020248;28;20204;-67
2021/03/23 10:02:00;;;;;;;27.33;17.73;;;14.70;99.90;;;;;;5020274;28;20196;-67
2021/03/23 10:04:35;;;;;;;26.23;17.37;;;14.60;99.90;;;;;;5022534;28;20226;-67
2021/03/23 10:07:03;;;;;;;26.20;16.97;;;14.50;99.90;;;;;;5023220;28;20203;-67
2021/03/23 10:09:31;;;;;;;23.57;16.97;;;14.60;99.90;;;;;;5020739;28;20216;-68
2021/03/23 10:11:59;;;;;;;21.47;16.97;;;14.20;99.90;;;;;;5022538;28;20578;-67
2021/03/23 10:14:36;;;;;;;23.67;18.47;;;13.80;99.90;;;;;;5021477;28;20235;-67
2021/03/23 10:17:15;;;;;;;25.20;17.60;;;13.60;99.90;;;;;;5024797;28;20219;-67
2021/03/23 10:19:45;;;;;;;24.77;17.77;;;13.70;99.90;;;;;;5022333;28;20200;-67
2021/03/23 10:22:14;;;;;;;22.60;16.77;;;13.90;99.90;;;;;;5022490;28;20196;-68
2021/03/23 10:24:43;;;;;;;26.50;19.17;;;13.80;99.90;;;;;;5021563;28;20211;-68
2021/03/23 10:27:20;;;;;;;24.20;16.87;;;13.70;99.90;;;;;;5022352;28;20210;-69
2021/03/23 10:29:56;;;;;;;24.60;17.63;;;13.50;99.90;;;;;;5020172;28;20271;-68
2021/03/23 10:32:34;;;;;;;21.70;16.37;;;13.00;99.90;;;;;;5018970;28;20250;-68
2021/03/23 10:35:06;;;;;;;23.13;17.03;;;12.70;99.90;;;;;;5018736;28;20208;-69
2021/03/23 10:37:33;;;;;;;33.80;18.97;;;12.50;99.90;;;;;;5019571;28;20311;-69
2021/03/23 10:39:59;;;;;;;23.50;16.57;;;12.40;99.90;;;;;;5020219;28;20243;-68
2021/03/23 10:42:28;;;;;;;24.83;16.83;;;12.40;99.90;;;;;;5018762;28;20645;-68
2021/03/23 10:45:23;;;;;;;27.03;17.60;;;12.40;99.90;;;;;;5020599;28;20240;-69
2021/03/23 10:48:02;;;;;;;25.57;17.47;;;12.20;99.90;;;;;;5018614;28;20211;-68
2021/03/23 10:50:31;;;;;;;27.23;18.23;;;11.90;99.90;;;;;;5021754;28;20208;-69
2021/03/23 10:53:20;;;;;;;25.47;18.30;;;11.80;99.90;;;;;;5019648;28;20232;-69
2021/03/23 10:55:49;;;;;;;24.47;17.63;;;12.10;99.90;;;;;;5021049;28;20212;-69
2021/03/23 10:58:22;;;;;;;25.00;15.40;;;12.20;99.90;;;;;;5019500;28;20589;-68
2021/03/23 11:00:51;;;;;;;26.30;18.03;;;11.90;99.90;;;;;;5019638;28;20239;-69
2021/03/23 11:03:31;;;;;;;27.23;18.00;;;11.90;99.90;;;;;;5019333;28;20205;-69
2021/03/23 11:06:00;;;;;;;22.43;16.27;;;12.30;99.90;;;;;;5019810;28;20231;-70
2021/03/23 11:08:28;;;;;;;24.47;16.77;;;12.60;99.90;;;;;;5016366;28;20193;-68
2021/03/23 11:10:57;;;;;;;26.90;17.23;;;12.50;99.90;;;;;;5018727;28;20205;-69
2021/03/23 11:13:23;;;;;;;23.67;17.27;;;12.60;99.90;;;;;;5021196;28;20243;-69
2021/03/23 11:15:50;;;;;;;19.77;16.00;;;12.80;99.90;;;;;;5021195;28;20572;-68
2021/03/23 11:18:23;;;;;;;21.50;16.33;;;12.90;99.90;;;;;;5022031;28;20240;-69
2021/03/23 11:20:51;;;;;;;22.07;16.17;;;12.90;99.90;;;;;;5021742;28;20653;-68
2021/03/23 11:23:32;;;;;;;26.00;17.73;;;12.60;99.90;;;;;;5022272;28;20219;-69
2021/03/23 11:25:59;;;;;;;27.30;18.47;;;12.40;99.90;;;;;;5021606;28;20195;-76
2021/03/23 11:28:27;;;;;;;27.60;18.43;;;12.10;99.90;;;;;;5023552;28;20204;-70
2021/03/23 11:30:54;;;;;;;28.57;18.47;;;11.90;99.90;;;;;;5036902;28;20203;-68
2021/03/23 11:33:20;;;;;;;29.50;19.63;;;11.90;99.90;;;;;;5032172;28;20200;-69
2021/03/23 11:35:48;;;;;;;29.50;19.33;;;12.20;99.90;;;;;;5047290;28;20206;-69
2021/03/23 11:38:15;;;;;;;28.23;19.30;;;12.20;99.90;;;;;;5022491;28;20235;-69
2021/03/23 11:40:43;;;;;;;27.30;18.60;;;12.20;99.90;;;;;;5032963;28;20559;-69
2021/03/23 11:43:17;;;;;;;24.83;18.70;;;12.40;99.90;;;;;;5033795;28;21322;-68
2021/03/23 11:45:45;;;;;;;28.53;19.03;;;12.70;99.90;;;;;;5032601;28;20208;-68
2021/03/23 11:48:13;;;;;;;27.03;19.00;;;12.70;99.90;;;;;;5026233;28;20638;-68
2021/03/23 11:50:45;;;;;;;29.17;18.87;;;12.60;99.90;;;;;;5040529;28;20256;-69
2021/03/23 11:53:12;;;;;;;26.90;19.40;;;12.50;99.90;;;;;;5031457;28;20230;-68
2021/03/23 11:55:43;;;;;;;28.03;20.67;;;12.40;99.90;;;;;;5043688;28;20200;-68
2021/03/23 11:58:11;;;;;;;30.40;20.20;;;12.40;99.90;;;;;;5027877;28;20223;-68
2021/03/23 12:00:39;;;;;;;33.43;21.63;;;12.30;99.90;;;;;;5031673;28;20632;-68
2021/03/23 12:03:10;;;;;;;34.50;22.33;;;12.00;99.90;;;;;;5004132;28;20197;-67
2021/03/23 12:05:38;;;;;;;32.30;23.27;;;11.90;99.90;;;;;;5004821;28;20200;-69
2021/03/23 12:08:14;;;;;;;34.60;23.23;;;11.90;99.90;;;;;;5002829;28;20210;-67
2021/03/23 12:10:47;;;;;;;33.00;23.03;;;12.10;99.90;;;;;;5010044;28;20201;-67
2021/03/23 12:13:20;;;;;;;33.97;23.90;;;12.20;99.90;;;;;;5017228;28;20201;-67
2021/03/23 12:15:55;;;;;;;33.43;24.13;;;12.60;99.90;;;;;;4997265;28;20615;-68
2021/03/23 12:18:23;;;;;;;35.87;23.80;;;13.00;99.90;;;;;;4995654;28;20688;-68
2021/03/23 12:20:57;;;;;;;35.07;23.93;;;13.00;99.90;;;;;;4998500;28;20263;-68
2021/03/23 12:23:25;;;;;;;32.60;21.90;;;13.20;99.90;;;;;;4996091;28;20434;-68
2021/03/23 12:25:53;;;;;;;32.47;22.90;;;13.60;99.90;;;;;;4995096;28;20568;-67
2021/03/23 12:28:21;;;;;;;30.87;21.07;;;13.90;99.90;;;;;;4995269;28;20197;-67
2021/03/23 12:30:47;;;;;;;35.07;23.23;;;14.10;99.90;;;;;;4991517;28;20670;-69
2021/03/23 12:33:14;;;;;;;33.07;24.23;;;14.00;99.90;;;;;;4995573;28;20249;-67
2021/03/23 12:35:40;;;;;;;29.97;23.07;;;14.00;99.90;;;;;;4993421;28;20198;-68
2021/03/23 12:38:10;;;;;;;29.77;22.57;;;14.50;99.90;;;;;;4994449;28;20292;-68
2021/03/23 12:40:37;;;;;;;30.97;23.80;;;15.30;99.90;;;;;;4994900;28;20580;-68
2021/03/23 12:43:09;;;;;;;32.00;22.90;;;16.00;99.90;;;;;;4998696;28;20206;-67
2021/03/23 12:45:41;;;;;;;33.33;25.07;;;16.30;99.90;;;;;;4995025;28;20659;-69
2021/03/23 12:48:09;;;;;;;31.47;23.27;;;16.60;99.90;;;;;;4997141;28;20317;-69
2021/03/23 12:50:36;;;;;;;33.90;24.60;;;16.70;99.90;;;;;;4992698;28;20206;-68
2021/03/23 12:53:06;;;;;;;32.70;24.30;;;17.00;99.90;;;;;;4994297;28;20198;-68
2021/03/23 12:55:34;;;;;;;31.20;23.67;;;17.00;99.90;;;;;;4995609;28;20197;-67
2021/03/23 12:58:05;;;;;;;30.30;24.03;;;16.90;99.90;;;;;;4993906;28;22250;-69